createdAt,value
2018-09-18T00:01:34.412Z,-69
2018-09-18T00:04:00.228Z,-69
2018-09-18T00:06:26.055Z,-69
2018-09-18T00:08:51.869Z,-69
2018-09-18T00:11:17.685Z,-69
2018-09-18T00:13:43.506Z,-69
2018-09-18T00:16:09.328Z,-69
2018-09-18T00:18:35.145Z,-69
2018-09-18T00:21:00.967Z,-70
2018-09-18T00:23:26.788Z,-70
2018-09-18T00:25:52.605Z,-70
2018-09-18T00:28:18.441Z,-69
2018-09-18T00:30:44.244Z,-70
2018-09-18T00:33:10.063Z,-70
2018-09-18T00:35:35.881Z,-69
2018-09-18T00:38:01.705Z,-69
2018-09-18T00:40:28.161Z,-69
2018-09-18T00:42:53.965Z,-69
2018-09-18T00:45:19.776Z,-69
2018-09-18T00:47:45.591Z,-69
2018-09-18T00:50:11.420Z,-69
2018-09-18T00:52:37.240Z,-69
2018-09-18T00:55:03.067Z,-69
2018-09-18T00:57:28.876Z,-68
2018-09-18T00:59:54.694Z,-69
2018-09-18T01:02:20.520Z,-69
2018-09-18T01:04:46.340Z,-69
2018-09-18T01:07:12.156Z,-69
2018-09-18T01:09:37.978Z,-69
2018-09-18T01:12:03.796Z,-69
2018-09-18T01:14:29.616Z,-69
2018-09-18T01:16:55.428Z,-69
2018-09-18T01:19:21.252Z,-69
2018-09-18T01:21:47.087Z,-69
2018-09-18T01:24:12.891Z,-70
2018-09-18T01:26:38.709Z,-70
2018-09-18T01:29:04.529Z,-70
2018-09-18T01:31:30.357Z,-69
2018-09-18T01:33:56.166Z,-69
2018-09-18T01:36:21.996Z,-69
2018-09-18T01:38:47.812Z,-69
2018-09-18T01:41:13.637Z,-69
2018-09-18T01:43:39.459Z,-70
2018-09-18T01:46:05.369Z,-70
2018-09-18T01:48:31.184Z,-70
2018-09-18T01:50:57.010Z,-68
2018-09-18T01:53:22.824Z,-70
2018-09-18T01:55:48.647Z,-69
2018-09-18T01:58:14.567Z,-69
2018-09-18T02:00:40.385Z,-69
2018-09-18T02:03:06.205Z,-69
2018-09-18T02:05:32.033Z,-69
2018-09-18T02:07:57.845Z,-69
2018-09-18T02:10:23.656Z,-69
2018-09-18T02:12:49.480Z,-68
2018-09-18T02:15:15.300Z,-69
2018-09-18T02:17:41.120Z,-69
2018-09-18T02:20:06.941Z,-68
2018-09-18T02:22:32.770Z,-69
2018-09-18T02:24:58.584Z,-69
2018-09-18T02:27:24.408Z,-69
2018-09-18T02:29:50.228Z,-69
2018-09-18T02:32:16.045Z,-69
2018-09-18T02:34:41.884Z,-69
2018-09-18T02:37:07.788Z,-70
2018-09-18T02:39:33.620Z,-69
2018-09-18T02:41:59.526Z,-68
2018-09-18T02:44:25.348Z,-69
2018-09-18T02:46:51.275Z,-69
2018-09-18T02:49:17.100Z,-69
2018-09-18T02:51:42.908Z,-70
2018-09-18T02:54:08.738Z,-69
2018-09-18T02:56:34.544Z,-69
2018-09-18T02:59:00.475Z,-69
2018-09-18T03:01:26.284Z,-68
2018-09-18T03:03:52.112Z,-68
2018-09-18T03:06:17.933Z,-69
2018-09-18T03:08:43.788Z,-69
2018-09-18T03:11:09.708Z,-70
2018-09-18T03:13:35.592Z,-70
2018-09-18T03:16:01.413Z,-70
2018-09-18T03:18:27.234Z,-70
2018-09-18T03:20:53.099Z,-70
2018-09-18T03:23:18.886Z,-69
2018-09-18T03:25:44.694Z,-70
2018-09-18T03:28:10.522Z,-70
2018-09-18T03:30:36.341Z,-70
2018-09-18T03:33:02.158Z,-70
2018-09-18T03:35:27.971Z,-69
2018-09-18T03:37:53.798Z,-70
2018-09-18T03:40:19.709Z,-70
2018-09-18T03:42:45.521Z,-70
2018-09-18T03:45:11.361Z,-70
2018-09-18T03:47:37.164Z,-70
2018-09-18T03:50:02.988Z,-70
2018-09-18T03:52:28.813Z,-70
2018-09-18T03:54:54.622Z,-70
2018-09-18T03:57:20.448Z,-70
2018-09-18T03:59:46.269Z,-71
2018-09-18T04:02:12.077Z,-70
2018-09-18T04:04:37.892Z,-70
2018-09-18T04:07:03.774Z,-70
2018-09-18T04:09:29.644Z,-70
2018-09-18T04:11:55.460Z,-70
2018-09-18T04:14:21.280Z,-70
2018-09-18T04:16:47.141Z,-69
2018-09-18T04:19:13.034Z,-70
2018-09-18T04:21:38.945Z,-70
2018-09-18T04:24:04.762Z,-70
2018-09-18T04:26:30.573Z,-70
2018-09-18T04:28:56.403Z,-70
2018-09-18T04:31:22.279Z,-70
2018-09-18T04:33:48.860Z,-69
2018-09-18T04:36:14.677Z,-70
2018-09-18T04:38:40.492Z,-70
2018-09-18T04:41:06.313Z,-71
2018-09-18T04:43:32.131Z,-70
2018-09-18T04:45:58.014Z,-68
2018-09-18T04:48:23.777Z,-68
2018-09-18T04:50:49.600Z,-69
2018-09-18T04:53:15.445Z,-69
2018-09-18T04:55:41.359Z,-70
2018-09-18T04:58:07.166Z,-69
2018-09-18T05:00:32.981Z,-69
2018-09-18T05:02:58.798Z,-68
2018-09-18T05:05:24.613Z,-68
2018-09-18T05:07:50.437Z,-67
2018-09-18T05:10:16.256Z,-69
2018-09-18T05:12:42.085Z,-68
2018-09-18T05:15:07.896Z,-68
2018-09-18T05:17:33.713Z,-68
2018-09-18T05:19:59.551Z,-69
2018-09-18T05:22:25.501Z,-69
2018-09-18T05:24:51.390Z,-68
2018-09-18T05:27:17.208Z,-69
2018-09-18T05:29:43.021Z,-70
2018-09-18T05:32:08.842Z,-70
2018-09-18T05:34:34.671Z,-69
2018-09-18T05:37:00.481Z,-69
2018-09-18T05:39:26.340Z,-69
2018-09-18T05:41:57.000Z,-69
2018-09-18T05:44:22.859Z,-68
2018-09-18T05:46:48.676Z,-69
2018-09-18T05:49:14.502Z,-69
2018-09-18T05:51:40.414Z,-69
2018-09-18T05:54:06.241Z,-70
2018-09-18T05:56:32.085Z,-70
2018-09-18T05:58:57.976Z,-70
2018-09-18T06:01:23.795Z,-70
2018-09-18T06:03:49.605Z,-70
2018-09-18T06:06:15.438Z,-70
2018-09-18T06:08:41.261Z,-70
2018-09-18T06:11:07.100Z,-70
2018-09-18T06:13:32.988Z,-70
2018-09-18T06:15:58.825Z,-70
2018-09-18T06:18:24.913Z,-69
2018-09-18T06:20:50.843Z,-69
2018-09-18T06:23:16.764Z,-69
2018-09-18T06:25:42.620Z,-69
2018-09-18T06:28:08.492Z,-69
2018-09-18T06:30:34.364Z,-68
2018-09-18T06:33:00.182Z,-69
2018-09-18T06:35:26.112Z,-69
2018-09-18T06:37:52.025Z,-69
2018-09-18T06:40:18.041Z,-68
2018-09-18T06:42:43.852Z,-68
2018-09-18T06:45:09.664Z,-68
2018-09-18T06:47:35.487Z,-68
2018-09-18T06:50:01.297Z,-67
2018-09-18T06:52:27.119Z,-66
2018-09-18T06:54:52.944Z,-67
2018-09-18T06:57:18.756Z,-67
2018-09-18T06:59:44.583Z,-67
2018-09-18T07:02:10.401Z,-67
2018-09-18T07:04:36.228Z,-67
2018-09-18T07:07:02.048Z,-67
2018-09-18T07:09:27.959Z,-67
2018-09-18T07:11:53.779Z,-67
2018-09-18T07:14:19.623Z,-67
2018-09-18T07:16:45.530Z,-67
2018-09-18T07:19:11.352Z,-67
2018-09-18T07:21:37.168Z,-67
2018-09-18T07:24:02.997Z,-67
2018-09-18T07:26:28.804Z,-67
2018-09-18T07:28:54.626Z,-67
2018-09-18T07:31:20.449Z,-67
2018-09-18T07:33:46.319Z,-67
2018-09-18T07:36:12.259Z,-67
2018-09-18T07:38:38.011Z,-67
2018-09-18T07:41:03.880Z,-67
2018-09-18T07:43:29.644Z,-67
2018-09-18T07:45:55.460Z,-67
2018-09-18T07:48:21.280Z,-67
2018-09-18T07:50:47.098Z,-67
2018-09-18T07:53:12.920Z,-66
2018-09-18T07:55:38.739Z,-67
2018-09-18T07:58:04.552Z,-67
2018-09-18T08:00:30.376Z,-67
2018-09-18T08:02:56.192Z,-67
2018-09-18T08:05:22.012Z,-66
2018-09-18T08:07:47.842Z,-67
2018-09-18T08:10:13.658Z,-67
2018-09-18T08:12:39.486Z,-67
2018-09-18T08:15:05.297Z,-67
2018-09-18T08:17:31.114Z,-67
2018-09-18T08:19:56.931Z,-67
2018-09-18T08:22:22.758Z,-67
2018-09-18T08:24:48.577Z,-67
2018-09-18T08:27:14.401Z,-67
2018-09-18T08:29:40.213Z,-67
2018-09-18T08:32:06.032Z,-66
2018-09-18T08:34:31.853Z,-67
2018-09-18T08:36:57.693Z,-67
2018-09-18T08:39:23.484Z,-67
2018-09-18T08:41:49.316Z,-67
2018-09-18T08:44:15.253Z,-67
2018-09-18T08:46:41.052Z,-67
2018-09-18T08:49:06.875Z,-67
2018-09-18T08:51:32.699Z,-67
2018-09-18T08:53:58.516Z,-68
2018-09-18T08:56:24.353Z,-67
2018-09-18T08:58:50.287Z,-67
2018-09-18T09:01:16.076Z,-67
2018-09-18T09:03:42.021Z,-67
2018-09-18T09:06:07.813Z,-67
2018-09-18T09:08:33.649Z,-67
2018-09-18T09:10:59.513Z,-67
2018-09-18T09:13:25.283Z,-67
2018-09-18T09:15:51.096Z,-66
2018-09-18T09:18:17.116Z,-67
2018-09-18T09:20:42.845Z,-67
2018-09-18T09:23:08.682Z,-67
2018-09-18T09:25:34.592Z,-67
2018-09-18T09:28:00.399Z,-67
2018-09-18T09:30:26.245Z,-67
2018-09-18T09:32:52.163Z,-66
2018-09-18T09:35:18.098Z,-68
2018-09-18T09:37:43.982Z,-67
2018-09-18T09:40:09.792Z,-67
2018-09-18T09:42:35.639Z,-68
2018-09-18T09:45:01.627Z,-67
2018-09-18T09:47:27.356Z,-66
2018-09-18T09:49:53.173Z,-67
2018-09-18T09:52:18.995Z,-67
2018-09-18T09:54:44.815Z,-67
2018-09-18T09:57:10.647Z,-68
2018-09-18T09:59:36.458Z,-67
2018-09-18T10:02:02.272Z,-67
2018-09-18T10:04:28.095Z,-67
2018-09-18T10:06:53.916Z,-67
2018-09-18T10:09:19.765Z,-67
2018-09-18T10:11:45.684Z,-67
2018-09-18T10:14:11.492Z,-67
2018-09-18T10:16:37.297Z,-67
2018-09-18T10:19:03.118Z,-67
2018-09-18T10:21:28.940Z,-67
2018-09-18T10:23:54.776Z,-67
2018-09-18T10:26:20.642Z,-67
2018-09-18T10:28:46.396Z,-67
2018-09-18T10:31:12.219Z,-67
2018-09-18T10:33:38.043Z,-67
2018-09-18T10:36:03.866Z,-68
2018-09-18T10:38:33.258Z,-67
2018-09-18T10:40:59.162Z,-66
2018-09-18T10:43:24.925Z,-67
2018-09-18T10:45:50.849Z,-68
2018-09-18T10:48:16.787Z,-69
2018-09-18T10:50:42.879Z,-69
2018-09-18T10:53:09.304Z,-75
2018-09-18T10:55:39.242Z,-77
2018-09-18T10:58:05.038Z,-75
2018-09-18T11:03:03.163Z,-76
2018-09-18T11:05:29.063Z,-76
2018-09-18T11:07:54.961Z,-76
2018-09-18T11:10:21.557Z,-73
2018-09-18T11:12:47.423Z,-75
2018-09-18T11:15:13.280Z,-76
2018-09-18T11:17:39.176Z,-75
2018-09-18T11:20:05.000Z,-76
2018-09-18T11:22:30.924Z,-75
2018-09-18T11:24:56.729Z,-76
2018-09-18T11:27:22.567Z,-75
2018-09-18T11:29:48.415Z,-75
2018-09-18T11:32:15.351Z,-76
2018-09-18T11:34:41.252Z,-75
2018-09-18T11:37:07.181Z,-75
2018-09-18T11:39:33.004Z,-76
2018-09-18T11:41:58.905Z,-76
2018-09-18T11:46:57.310Z,-77
2018-09-18T11:51:57.333Z,-77
2018-09-18T11:54:23.147Z,-76
2018-09-18T12:01:51.890Z,-75
2018-09-18T12:09:21.721Z,-76
2018-09-18T12:14:19.936Z,-75
2018-09-18T12:16:45.876Z,-75
2018-09-18T12:24:16.412Z,-75
2018-09-18T12:29:14.184Z,-77
2018-09-18T12:31:40.047Z,-77
2018-09-18T12:44:13.280Z,-76
2018-09-18T12:46:45.345Z,-76
2018-09-18T12:49:11.344Z,-76
2018-09-18T12:59:15.460Z,-77
2018-09-18T13:01:41.265Z,-76
2018-09-18T13:04:09.337Z,-76
2018-09-18T13:06:35.379Z,-78
2018-09-18T13:09:01.182Z,-79
2018-09-18T13:16:29.933Z,-81
2018-09-18T13:21:27.779Z,-81
2018-09-18T13:31:28.283Z,-81
2018-09-18T13:41:33.452Z,-77
2018-09-18T13:56:39.196Z,-77
2018-09-18T14:01:36.779Z,-77
2018-09-18T14:04:02.590Z,-77
2018-09-18T14:09:03.532Z,-77
2018-09-18T14:11:29.367Z,-77
2018-09-18T14:21:30.705Z,-78
2018-09-18T14:23:56.609Z,-78
2018-09-18T14:28:57.554Z,-78
2018-09-18T14:31:24.725Z,-77
2018-09-18T14:33:50.717Z,-69
2018-09-18T14:36:16.695Z,-69
2018-09-18T14:38:43.309Z,-70
2018-09-18T14:41:09.242Z,-70
2018-09-18T14:43:35.256Z,-70
2018-09-18T14:46:01.267Z,-69
2018-09-18T14:48:27.520Z,-70
2018-09-18T14:50:53.482Z,-69
2018-09-18T14:53:19.415Z,-69
2018-09-18T14:55:45.275Z,-70
2018-09-18T14:58:11.187Z,-70
2018-09-18T15:00:37.047Z,-70
2018-09-18T15:03:03.722Z,-69
2018-09-18T15:05:29.628Z,-69
2018-09-18T15:07:55.551Z,-70
2018-09-18T15:13:51.326Z,-70
2018-09-18T15:16:17.232Z,-70
2018-09-18T15:18:43.098Z,-70
2018-09-18T15:21:09.004Z,-69
2018-09-18T15:23:35.220Z,-69
2018-09-18T15:26:01.069Z,-70
2018-09-18T15:28:26.974Z,-70
2018-09-18T15:30:52.940Z,-69
2018-09-18T15:33:18.951Z,-70
2018-09-18T15:35:45.645Z,-70
2018-09-18T15:38:11.516Z,-70
2018-09-18T15:40:38.112Z,-69
2018-09-18T15:43:04.074Z,-70
2018-09-18T15:45:30.158Z,-70
2018-09-18T15:47:56.152Z,-70
2018-09-18T15:50:22.037Z,-70
2018-09-18T15:52:47.928Z,-70
2018-09-18T15:55:13.884Z,-69
2018-09-18T15:57:39.803Z,-70
2018-09-18T16:00:05.712Z,-70
2018-09-18T16:02:31.614Z,-70
2018-09-18T16:04:57.536Z,-70
2018-09-18T16:07:23.466Z,-70
2018-09-18T16:09:49.442Z,-69
2018-09-18T16:12:16.047Z,-69
2018-09-18T16:14:41.952Z,-70
2018-09-18T16:17:07.909Z,-70
2018-09-18T16:19:33.786Z,-69
2018-09-18T16:21:59.709Z,-69
2018-09-18T16:24:25.811Z,-69
2018-09-18T16:26:51.668Z,-70
2018-09-18T16:29:17.647Z,-70
2018-09-18T16:31:43.546Z,-70
2018-09-18T16:34:10.170Z,-70
2018-09-18T16:36:36.817Z,-70
2018-09-18T16:39:03.429Z,-69
2018-09-18T16:41:29.356Z,-70
2018-09-18T16:43:55.305Z,-69
2018-09-18T16:46:21.922Z,-70
2018-09-18T16:48:47.865Z,-70
2018-09-18T16:51:14.503Z,-69
2018-09-18T16:53:41.134Z,-69
2018-09-18T16:56:07.744Z,-70
2018-09-18T16:58:33.824Z,-69
2018-09-18T17:00:59.629Z,-69
2018-09-18T17:03:26.287Z,-70
2018-09-18T17:05:52.199Z,-70
2018-09-18T17:08:18.095Z,-69
2018-09-18T17:10:44.734Z,-69
2018-09-18T17:13:11.386Z,-69
2018-09-18T17:15:37.258Z,-69
2018-09-18T17:18:03.184Z,-70
2018-09-18T17:20:29.101Z,-70
2018-09-18T17:22:55.039Z,-70
2018-09-18T17:25:20.934Z,-70
2018-09-18T17:27:46.937Z,-69
2018-09-18T17:30:12.824Z,-70
2018-09-18T17:32:39.525Z,-70
2018-09-18T17:35:05.535Z,-71
2018-09-18T17:37:31.374Z,-70
2018-09-18T17:39:57.264Z,-70
2018-09-18T17:42:23.119Z,-69
2018-09-18T17:44:49.037Z,-70
2018-09-18T17:47:15.674Z,-70
2018-09-18T17:49:41.590Z,-69
2018-09-18T17:52:07.402Z,-69
2018-09-18T17:54:33.215Z,-69
2018-09-18T17:56:59.039Z,-68
2018-09-18T17:59:24.938Z,-69
2018-09-18T18:01:50.679Z,-69
2018-09-18T18:04:16.502Z,-69
2018-09-18T18:06:42.323Z,-69
2018-09-18T18:09:08.238Z,-68
2018-09-18T18:11:34.125Z,-69
2018-09-18T18:13:59.977Z,-69
2018-09-18T18:16:25.943Z,-70
2018-09-18T18:18:51.863Z,-70
2018-09-18T18:21:17.824Z,-70
2018-09-18T18:23:43.709Z,-70
2018-09-18T18:26:10.376Z,-70
2018-09-18T18:28:36.313Z,-70
2018-09-18T18:31:02.367Z,-69
2018-09-18T18:33:28.231Z,-70
2018-09-18T18:35:54.124Z,-70
2018-09-18T18:38:20.062Z,-69
2018-09-18T18:40:46.738Z,-71
2018-09-18T18:43:12.649Z,-71
2018-09-18T18:45:38.617Z,-71
2018-09-18T18:48:05.525Z,-70
2018-09-18T18:50:31.318Z,-71
2018-09-18T18:52:57.929Z,-71
2018-09-18T18:55:23.856Z,-71
2018-09-18T18:57:49.767Z,-71
2018-09-18T19:00:16.407Z,-71
2018-09-18T19:02:42.232Z,-71
2018-09-18T19:05:08.152Z,-70
2018-09-18T19:07:34.085Z,-71
2018-09-18T19:10:00.035Z,-70
2018-09-18T19:12:26.734Z,-70
2018-09-18T19:14:52.574Z,-70
2018-09-18T19:17:18.505Z,-70
2018-09-18T19:19:44.417Z,-71
2018-09-18T19:22:10.329Z,-71
2018-09-18T19:24:36.273Z,-71
2018-09-18T19:27:02.243Z,-70
2018-09-18T19:29:28.145Z,-70
2018-09-18T19:31:54.045Z,-70
2018-09-18T19:34:20.654Z,-70
2018-09-18T19:36:46.576Z,-70
2018-09-18T19:39:12.564Z,-70
2018-09-18T19:41:39.126Z,-70
2018-09-18T19:44:04.950Z,-71
2018-09-18T19:46:30.866Z,-71
2018-09-18T19:48:56.822Z,-71
2018-09-18T19:51:22.720Z,-70
2018-09-18T19:53:48.647Z,-70
2018-09-18T19:56:14.553Z,-70
2018-09-18T19:58:40.484Z,-70
2018-09-18T20:01:06.405Z,-69
2018-09-18T20:03:32.318Z,-70
2018-09-18T20:05:58.147Z,-70
2018-09-18T20:08:24.091Z,-72
2018-09-18T20:10:49.996Z,-71
2018-09-18T20:13:16.619Z,-72
2018-09-18T20:15:42.596Z,-73
2018-09-18T20:18:09.236Z,-73
2018-09-18T20:20:35.877Z,-71
2018-09-18T20:23:01.737Z,-71
2018-09-18T20:25:27.566Z,-70
2018-09-18T20:27:53.494Z,-71
2018-09-18T20:30:19.418Z,-70
2018-09-18T20:32:45.337Z,-70
2018-09-18T20:35:11.369Z,-70
2018-09-18T20:37:37.276Z,-71
2018-09-18T20:40:03.096Z,-71
2018-09-18T20:42:29.099Z,-70
2018-09-18T20:44:54.960Z,-71
2018-09-18T20:47:20.913Z,-71
2018-09-18T20:49:46.783Z,-72
2018-09-18T20:52:12.741Z,-70
2018-09-18T20:54:39.350Z,-69
2018-09-18T20:57:05.304Z,-71
2018-09-18T20:59:31.912Z,-67
2018-09-18T21:01:57.752Z,-69
2018-09-18T21:04:23.637Z,-68
2018-09-18T21:06:49.452Z,-68
2018-09-18T21:09:15.288Z,-68
2018-09-18T21:11:41.119Z,-68
2018-09-18T21:14:07.027Z,-69
2018-09-18T21:16:32.848Z,-68
2018-09-18T21:18:58.758Z,-69
2018-09-18T21:21:24.582Z,-69
2018-09-18T21:23:50.506Z,-69
2018-09-18T21:26:16.329Z,-68
2018-09-18T21:28:42.329Z,-68
2018-09-18T21:31:08.169Z,-68
2018-09-18T21:33:33.997Z,-69
2018-09-18T21:36:00.061Z,-69
2018-09-18T21:38:25.929Z,-68
2018-09-18T21:40:51.751Z,-68
2018-09-18T21:43:17.590Z,-68
2018-09-18T21:45:43.522Z,-68
2018-09-18T21:48:09.429Z,-68
2018-09-18T21:50:35.341Z,-69
2018-09-18T21:53:01.178Z,-69
2018-09-18T21:55:27.123Z,-68
2018-09-18T21:57:53.018Z,-68
2018-09-18T22:00:18.943Z,-68
2018-09-18T22:02:44.866Z,-69
2018-09-18T22:05:10.760Z,-69
2018-09-18T22:07:36.657Z,-69
2018-09-18T22:10:02.524Z,-69
2018-09-18T22:12:28.457Z,-69
2018-09-18T22:14:54.352Z,-68
2018-09-18T22:17:20.326Z,-69
2018-09-18T22:19:46.932Z,-68
2018-09-18T22:22:12.865Z,-68
2018-09-18T22:24:38.762Z,-68
2018-09-18T22:27:04.777Z,-68
2018-09-18T22:29:30.600Z,-69
2018-09-18T22:31:56.520Z,-69
2018-09-18T22:34:22.333Z,-69
2018-09-18T22:36:48.159Z,-69
2018-09-18T22:39:14.022Z,-68
2018-09-18T22:41:39.917Z,-69
2018-09-18T22:44:05.826Z,-69
2018-09-18T22:46:31.767Z,-69
2018-09-18T22:48:57.704Z,-69
2018-09-18T22:51:23.610Z,-69
2018-09-18T22:53:50.310Z,-69
2018-09-18T22:56:16.193Z,-69
2018-09-18T22:58:46.111Z,-69
2018-09-18T23:01:12.704Z,-69
2018-09-18T23:03:38.521Z,-69
2018-09-18T23:06:04.352Z,-69
2018-09-18T23:08:30.271Z,-70
2018-09-18T23:10:56.079Z,-69
2018-09-18T23:13:21.912Z,-69
2018-09-18T23:15:47.909Z,-69
2018-09-18T23:18:13.743Z,-69
2018-09-18T23:20:39.575Z,-69
2018-09-18T23:23:05.516Z,-69
2018-09-18T23:25:31.468Z,-69
2018-09-18T23:27:58.045Z,-69
2018-09-18T23:30:24.015Z,-69
2018-09-18T23:32:50.600Z,-70
2018-09-18T23:35:16.431Z,-70
2018-09-18T23:37:42.252Z,-69
2018-09-18T23:40:08.068Z,-69
2018-09-18T23:42:33.887Z,-68
2018-09-18T23:44:59.812Z,-69
2018-09-18T23:47:25.642Z,-68
2018-09-18T23:49:51.631Z,-69
2018-09-18T23:52:17.525Z,-69
2018-09-18T23:54:44.131Z,-69
2018-09-18T23:57:10.030Z,-69
2018-09-18T23:59:35.966Z,-69
